sensor_id;sensor_type;location;lat;lon;timestamp;P1;durP1;ratioP1;P2;durP2;ratioP2
7142;SDS011;3613;48.902;9.204;2022-09-13T00:02:02;6.00;;;4.70;;
7142;SDS011;3613;48.902;9.204;2022-09-13T00:04:28;6.93;;;4.77;;
7142;SDS011;3613;48.902;9.204;2022-09-13T00:06:54;5.60;;;4.80;;
7142;SDS011;3613;48.902;9.204;2022-09-13T00:09:19;6.67;;;4.20;;
7142;SDS011;3613;48.902;9.204;2022-09-13T00:11:45;4.77;;;3.83;;
7142;SDS011;3613;48.902;9.204;2022-09-13T00:14:11;4.80;;;4.30;;
7142;SDS011;3613;48.902;9.204;2022-09-13T00:16:39;5.60;;;4.33;;
7142;SDS011;3613;48.902;9.204;2022-09-13T00:19:07;4.87;;;4.20;;
7142;SDS011;3613;48.902;9.204;2022-09-13T00:21:32;6.67;;;4.80;;
7142;SDS011;3613;48.902;9.204;2022-09-13T00:23:58;6.37;;;4.83;;
7142;SDS011;3613;48.902;9.204;2022-09-13T00:26:25;5.03;;;4.23;;
7142;SDS011;3613;48.902;9.204;2022-09-13T00:28:52;6.60;;;4.77;;
7142;SDS011;3613;48.902;9.204;2022-09-13T00:31:23;6.33;;;4.90;;
7142;SDS011;3613;48.902;9.204;2022-09-13T00:33:54;6.37;;;5.07;;
7142;SDS011;3613;48.902;9.204;2022-09-13T00:36:22;7.30;;;4.70;;
7142;SDS011;3613;48.902;9.204;2022-09-13T00:38:48;6.90;;;4.80;;
7142;SDS011;3613;48.902;9.204;2022-09-13T00:41:17;5.10;;;4.50;;
7142;SDS011;3613;48.902;9.204;2022-09-13T00:46:20;7.07;;;5.10;;
7142;SDS011;3613;48.902;9.204;2022-09-13T00:48:54;7.47;;;5.20;;
7142;SDS011;3613;48.902;9.204;2022-09-13T00:51:27;5.50;;;4.63;;
7142;SDS011;3613;48.902;9.204;2022-09-13T00:53:53;10.77;;;5.87;;
7142;SDS011;3613;48.902;9.204;2022-09-13T00:56:28;9.53;;;5.13;;
7142;SDS011;3613;48.902;9.204;2022-09-13T00:59:05;8.03;;;6.30;;
7142;SDS011;3613;48.902;9.204;2022-09-13T01:01:37;5.73;;;5.10;;
7142;SDS011;3613;48.902;9.204;2022-09-13T01:04:17;8.37;;;5.60;;
7142;SDS011;3613;48.902;9.204;2022-09-13T01:06:49;6.73;;;4.87;;
7142;SDS011;3613;48.902;9.204;2022-09-13T01:09:20;7.50;;;5.03;;
7142;SDS011;3613;48.902;9.204;2022-09-13T01:11:54;6.27;;;4.97;;
7142;SDS011;3613;48.902;9.204;2022-09-13T01:14:30;6.70;;;4.73;;
7142;SDS011;3613;48.902;9.204;2022-09-13T01:16:56;5.70;;;4.23;;
7142;SDS011;3613;48.902;9.204;2022-09-13T01:19:25;6.70;;;5.20;;
7142;SDS011;3613;48.902;9.204;2022-09-13T01:31:09;5.47;;;4.63;;
7142;SDS011;3613;48.902;9.204;2022-09-13T01:55:58;10.43;;;5.93;;
7142;SDS011;3613;48.902;9.204;2022-09-13T01:58:48;10.30;;;6.40;;
7142;SDS011;3613;48.902;9.204;2022-09-13T02:01:20;7.50;;;5.77;;
7142;SDS011;3613;48.902;9.204;2022-09-13T02:03:57;9.17;;;5.63;;
7142;SDS011;3613;48.902;9.204;2022-09-13T02:06:29;7.27;;;5.60;;
7142;SDS011;3613;48.902;9.204;2022-09-13T02:09:08;8.43;;;5.80;;
7142;SDS011;3613;48.902;9.204;2022-09-13T02:11:59;7.73;;;5.90;;
7142;SDS011;3613;48.902;9.204;2022-09-13T02:14:36;9.03;;;6.07;;
7142;SDS011;3613;48.902;9.204;2022-09-13T02:17:12;7.57;;;5.67;;
7142;SDS011;3613;48.902;9.204;2022-09-13T02:19:46;7.40;;;5.90;;
7142;SDS011;3613;48.902;9.204;2022-09-13T02:22:22;7.40;;;6.20;;
7142;SDS011;3613;48.902;9.204;2022-09-13T02:24:59;6.20;;;5.43;;
7142;SDS011;3613;48.902;9.204;2022-09-13T02:27:32;7.27;;;5.97;;
7142;SDS011;3613;48.902;9.204;2022-09-13T02:30:01;7.10;;;5.87;;
7142;SDS011;3613;48.902;9.204;2022-09-13T02:32:32;8.57;;;6.33;;
7142;SDS011;3613;48.902;9.204;2022-09-13T02:35:10;7.87;;;5.73;;
7142;SDS011;3613;48.902;9.204;2022-09-13T02:37:51;8.73;;;6.13;;
7142;SDS011;3613;48.902;9.204;2022-09-13T02:40:25;9.57;;;6.13;;
7142;SDS011;3613;48.902;9.204;2022-09-13T02:43:00;10.37;;;6.53;;
7142;SDS011;3613;48.902;9.204;2022-09-13T02:45:34;7.93;;;6.40;;
7142;SDS011;3613;48.902;9.204;2022-09-13T02:48:08;10.87;;;7.13;;
7142;SDS011;3613;48.902;9.204;2022-09-13T02:50:54;7.67;;;6.03;;
7142;SDS011;3613;48.902;9.204;2022-09-13T02:53:39;10.40;;;5.90;;
7142;SDS011;3613;48.902;9.204;2022-09-13T03:01:28;11.00;;;6.43;;
7142;SDS011;3613;48.902;9.204;2022-09-13T03:03:57;9.17;;;5.83;;
7142;SDS011;3613;48.902;9.204;2022-09-13T03:06:23;7.87;;;6.30;;
7142;SDS011;3613;48.902;9.204;2022-09-13T03:08:52;9.00;;;6.37;;
7142;SDS011;3613;48.902;9.204;2022-09-13T03:25:28;10.03;;;7.13;;
7142;SDS011;3613;48.902;9.204;2022-09-13T03:30:33;10.73;;;7.23;;
7142;SDS011;3613;48.902;9.204;2022-09-13T03:33:19;10.77;;;7.43;;
7142;SDS011;3613;48.902;9.204;2022-09-13T03:41:26;10.37;;;7.60;;
7142;SDS011;3613;48.902;9.204;2022-09-13T03:44:01;9.50;;;6.63;;
7142;SDS011;3613;48.902;9.204;2022-09-13T03:46:34;12.50;;;7.67;;
7142;SDS011;3613;48.902;9.204;2022-09-13T03:49:04;9.37;;;6.87;;
7142;SDS011;3613;48.902;9.204;2022-09-13T03:51:35;8.53;;;7.13;;
7142;SDS011;3613;48.902;9.204;2022-09-13T03:54:03;12.57;;;9.03;;
7142;SDS011;3613;48.902;9.204;2022-09-13T03:56:30;13.07;;;7.70;;
7142;SDS011;3613;48.902;9.204;2022-09-13T03:58:59;9.53;;;7.07;;
7142;SDS011;3613;48.902;9.204;2022-09-13T04:01:24;11.23;;;7.23;;
7142;SDS011;3613;48.902;9.204;2022-09-13T04:03:51;8.73;;;7.03;;
7142;SDS011;3613;48.902;9.204;2022-09-13T04:06:16;12.27;;;7.60;;
7142;SDS011;3613;48.902;9.204;2022-09-13T04:08:42;10.10;;;7.97;;
7142;SDS011;3613;48.902;9.204;2022-09-13T04:11:08;12.03;;;8.47;;
7142;SDS011;3613;48.902;9.204;2022-09-13T04:13:35;11.07;;;7.27;;
7142;SDS011;3613;48.902;9.204;2022-09-13T04:16:04;11.03;;;7.53;;
7142;SDS011;3613;48.902;9.204;2022-09-13T04:18:31;11.10;;;8.23;;
7142;SDS011;3613;48.902;9.204;2022-09-13T04:21:00;10.17;;;7.87;;
7142;SDS011;3613;48.902;9.204;2022-09-13T04:23:26;10.40;;;8.07;;
7142;SDS011;3613;48.902;9.204;2022-09-13T04:25:54;11.50;;;7.90;;
7142;SDS011;3613;48.902;9.204;2022-09-13T04:28:22;11.93;;;8.90;;
7142;SDS011;3613;48.902;9.204;2022-09-13T04:30:48;10.00;;;7.57;;
7142;SDS011;3613;48.902;9.204;2022-09-13T04:33:17;14.33;;;7.60;;
7142;SDS011;3613;48.902;9.204;2022-09-13T04:35:42;11.40;;;7.57;;
7142;SDS011;3613;48.902;9.204;2022-09-13T04:38:08;11.60;;;7.93;;
7142;SDS011;3613;48.902;9.204;2022-09-13T04:40:34;11.23;;;8.00;;
7142;SDS011;3613;48.902;9.204;2022-09-13T04:43:01;12.80;;;8.33;;
7142;SDS011;3613;48.902;9.204;2022-09-13T04:45:27;9.80;;;7.67;;
7142;SDS011;3613;48.902;9.204;2022-09-13T04:47:55;10.60;;;8.30;;
7142;SDS011;3613;48.902;9.204;2022-09-13T04:50:23;12.67;;;8.10;;
7142;SDS011;3613;48.902;9.204;2022-09-13T04:52:49;14.13;;;8.30;;
7142;SDS011;3613;48.902;9.204;2022-09-13T04:55:18;10.37;;;6.97;;
7142;SDS011;3613;48.902;9.204;2022-09-13T04:57:43;11.37;;;7.17;;
7142;SDS011;3613;48.902;9.204;2022-09-13T05:00:11;9.00;;;7.87;;
7142;SDS011;3613;48.902;9.204;2022-09-13T05:02:37;9.10;;;6.93;;
7142;SDS011;3613;48.902;9.204;2022-09-13T05:05:03;8.87;;;6.73;;
7142;SDS011;3613;48.902;9.204;2022-09-13T05:07:30;7.50;;;6.33;;
7142;SDS011;3613;48.902;9.204;2022-09-13T05:09:58;8.93;;;6.43;;
7142;SDS011;3613;48.902;9.204;2022-09-13T05:12:23;9.57;;;6.70;;
7142;SDS011;3613;48.902;9.204;2022-09-13T05:14:49;10.63;;;6.83;;
7142;SDS011;3613;48.902;9.204;2022-09-13T05:17:15;7.67;;;6.57;;
7142;SDS011;3613;48.902;9.204;2022-09-13T05:19:40;8.33;;;6.90;;
7142;SDS011;3613;48.902;9.204;2022-09-13T05:22:10;6.63;;;5.53;;
7142;SDS011;3613;48.902;9.204;2022-09-13T05:24:38;8.23;;;5.30;;
7142;SDS011;3613;48.902;9.204;2022-09-13T05:27:03;7.40;;;5.10;;
7142;SDS011;3613;48.902;9.204;2022-09-13T05:29:32;5.40;;;4.90;;
7142;SDS011;3613;48.902;9.204;2022-09-13T05:32:00;5.27;;;4.73;;
7142;SDS011;3613;48.902;9.204;2022-09-13T05:34:26;5.90;;;5.30;;
7142;SDS011;3613;48.902;9.204;2022-09-13T05:36:51;5.87;;;4.53;;
7142;SDS011;3613;48.902;9.204;2022-09-13T05:39:19;5.90;;;4.87;;
7142;SDS011;3613;48.902;9.204;2022-09-13T05:41:48;6.33;;;4.47;;
7142;SDS011;3613;48.902;9.204;2022-09-13T05:44:16;6.13;;;5.47;;
7142;SDS011;3613;48.902;9.204;2022-09-13T05:46:45;8.30;;;4.77;;
7142;SDS011;3613;48.902;9.204;2022-09-13T05:49:11;6.67;;;4.27;;
7142;SDS011;3613;48.902;9.204;2022-09-13T05:51:37;6.30;;;4.97;;
7142;SDS011;3613;48.902;9.204;2022-09-13T05:54:03;7.13;;;4.53;;
7142;SDS011;3613;48.902;9.204;2022-09-13T05:56:32;6.90;;;4.60;;
7142;SDS011;3613;48.902;9.204;2022-09-13T05:58:58;6.93;;;4.77;;
7142;SDS011;3613;48.902;9.204;2022-09-13T06:01:25;9.57;;;4.90;;
7142;SDS011;3613;48.902;9.204;2022-09-13T06:03:55;9.27;;;5.43;;
7142;SDS011;3613;48.902;9.204;2022-09-13T06:06:25;6.57;;;4.70;;
7142;SDS011;3613;48.902;9.204;2022-09-13T06:08:51;6.97;;;5.30;;
7142;SDS011;3613;48.902;9.204;2022-09-13T06:11:18;8.53;;;5.37;;
7142;SDS011;3613;48.902;9.204;2022-09-13T06:13:44;13.57;;;5.50;;
7142;SDS011;3613;48.902;9.204;2022-09-13T06:16:10;6.23;;;4.50;;
7142;SDS011;3613;48.902;9.204;2022-09-13T06:18:38;5.90;;;4.73;;
7142;SDS011;3613;48.902;9.204;2022-09-13T06:21:14;7.77;;;5.13;;
7142;SDS011;3613;48.902;9.204;2022-09-13T06:23:45;7.40;;;4.93;;
7142;SDS011;3613;48.902;9.204;2022-09-13T06:26:15;8.53;;;4.70;;
7142;SDS011;3613;48.902;9.204;2022-09-13T06:28:45;10.03;;;5.03;;
7142;SDS011;3613;48.902;9.204;2022-09-13T06:31:15;7.17;;;4.90;;
7142;SDS011;3613;48.902;9.204;2022-09-13T06:33:42;7.47;;;4.70;;
7142;SDS011;3613;48.902;9.204;2022-09-13T06:36:10;7.43;;;4.97;;
7142;SDS011;3613;48.902;9.204;2022-09-13T06:38:38;7.23;;;4.73;;
7142;SDS011;3613;48.902;9.204;2022-09-13T06:43:31;9.13;;;5.00;;
7142;SDS011;3613;48.902;9.204;2022-09-13T06:46:05;7.43;;;4.97;;
7142;SDS011;3613;48.902;9.204;2022-09-13T06:48:36;7.93;;;4.83;;
7142;SDS011;3613;48.902;9.204;2022-09-13T06:51:04;9.73;;;5.07;;
7142;SDS011;3613;48.902;9.204;2022-09-13T06:53:34;9.60;;;5.57;;
7142;SDS011;3613;48.902;9.204;2022-09-13T06:58:30;10.90;;;4.90;;
7142;SDS011;3613;48.902;9.204;2022-09-13T07:03:36;10.70;;;4.73;;
7142;SDS011;3613;48.902;9.204;2022-09-13T07:06:07;6.20;;;4.10;;
7142;SDS011;3613;48.902;9.204;2022-09-13T07:08:36;9.60;;;4.63;;
7142;SDS011;3613;48.902;9.204;2022-09-13T07:11:02;10.13;;;4.87;;
7142;SDS011;3613;48.902;9.204;2022-09-13T07:13:31;19.93;;;11.47;;
7142;SDS011;3613;48.902;9.204;2022-09-13T07:16:00;9.70;;;5.47;;
7142;SDS011;3613;48.902;9.204;2022-09-13T07:18:28;5.77;;;4.03;;
7142;SDS011;3613;48.902;9.204;2022-09-13T07:21:01;6.57;;;3.87;;
7142;SDS011;3613;48.902;9.204;2022-09-13T07:23:29;6.03;;;3.77;;
7142;SDS011;3613;48.902;9.204;2022-09-13T07:25:56;6.33;;;4.33;;
7142;SDS011;3613;48.902;9.204;2022-09-13T07:28:26;8.47;;;4.33;;
7142;SDS011;3613;48.902;9.204;2022-09-13T07:30:54;8.23;;;4.20;;
7142;SDS011;3613;48.902;9.204;2022-09-13T07:33:22;4.03;;;3.30;;
7142;SDS011;3613;48.902;9.204;2022-09-13T07:35:55;5.43;;;4.10;;
7142;SDS011;3613;48.902;9.204;2022-09-13T07:38:21;6.77;;;3.90;;
7142;SDS011;3613;48.902;9.204;2022-09-13T07:40:55;5.87;;;3.40;;
7142;SDS011;3613;48.902;9.204;2022-09-13T07:43:23;6.47;;;3.80;;
7142;SDS011;3613;48.902;9.204;2022-09-13T07:45:58;5.30;;;3.73;;
7142;SDS011;3613;48.902;9.204;2022-09-13T07:48:26;6.60;;;3.40;;
7142;SDS011;3613;48.902;9.204;2022-09-13T07:50:59;5.93;;;3.13;;
7142;SDS011;3613;48.902;9.204;2022-09-13T07:53:27;5.07;;;3.23;;
7142;SDS011;3613;48.902;9.204;2022-09-13T07:55:53;5.77;;;3.33;;
7142;SDS011;3613;48.902;9.204;2022-09-13T07:58:43;5.17;;;3.23;;
7142;SDS011;3613;48.902;9.204;2022-09-13T08:06:20;3.50;;;2.83;;
7142;SDS011;3613;48.902;9.204;2022-09-13T08:08:46;6.27;;;2.90;;
7142;SDS011;3613;48.902;9.204;2022-09-13T08:11:33;3.93;;;2.87;;
7142;SDS011;3613;48.902;9.204;2022-09-13T08:14:01;4.47;;;2.97;;
7142;SDS011;3613;48.902;9.204;2022-09-13T08:16:30;5.43;;;2.50;;
7142;SDS011;3613;48.902;9.204;2022-09-13T08:18:58;3.77;;;2.70;;
7142;SDS011;3613;48.902;9.204;2022-09-13T08:21:26;4.43;;;2.97;;
7142;SDS011;3613;48.902;9.204;2022-09-13T08:23:57;4.63;;;3.10;;
7142;SDS011;3613;48.902;9.204;2022-09-13T08:26:28;4.07;;;2.97;;
7142;SDS011;3613;48.902;9.204;2022-09-13T08:28:56;5.10;;;3.53;;
7142;SDS011;3613;48.902;9.204;2022-09-13T08:31:23;7.87;;;3.27;;
7142;SDS011;3613;48.902;9.204;2022-09-13T08:33:52;4.63;;;2.93;;
7142;SDS011;3613;48.902;9.204;2022-09-13T08:36:18;4.83;;;3.07;;
7142;SDS011;3613;48.902;9.204;2022-09-13T08:38:48;4.70;;;3.10;;
7142;SDS011;3613;48.902;9.204;2022-09-13T08:46:48;5.30;;;3.03;;
7142;SDS011;3613;48.902;9.204;2022-09-13T08:49:24;7.83;;;2.73;;
7142;SDS011;3613;48.902;9.204;2022-09-13T08:54:53;4.00;;;3.13;;
7142;SDS011;3613;48.902;9.204;2022-09-13T08:57:29;3.67;;;3.03;;
7142;SDS011;3613;48.902;9.204;2022-09-13T09:00:04;3.03;;;2.50;;
7142;SDS011;3613;48.902;9.204;2022-09-13T09:07:46;6.20;;;2.97;;
7142;SDS011;3613;48.902;9.204;2022-09-13T09:18:10;5.40;;;2.83;;
7142;SDS011;3613;48.902;9.204;2022-09-13T09:20:57;2.93;;;2.37;;
7142;SDS011;3613;48.902;9.204;2022-09-13T09:23:35;4.83;;;3.30;;
7142;SDS011;3613;48.902;9.204;2022-09-13T09:28:54;6.73;;;2.90;;
7142;SDS011;3613;48.902;9.204;2022-09-13T09:31:41;4.10;;;3.20;;
7142;SDS011;3613;48.902;9.204;2022-09-13T09:37:17;4.10;;;2.80;;
7142;SDS011;3613;48.902;9.204;2022-09-13T09:39:45;3.27;;;2.67;;
7142;SDS011;3613;48.902;9.204;2022-09-13T09:42:14;3.90;;;2.60;;
7142;SDS011;3613;48.902;9.204;2022-09-13T09:45:44;5.37;;;2.23;;
7142;SDS011;3613;48.902;9.204;2022-09-13T09:47:43;5.87;;;2.60;;
7142;SDS011;3613;48.902;9.204;2022-09-13T09:50:26;3.30;;;2.50;;
7142;SDS011;3613;48.902;9.204;2022-09-13T09:52:58;3.50;;;2.73;;
7142;SDS011;3613;48.902;9.204;2022-09-13T09:58:12;3.27;;;2.90;;
7142;SDS011;3613;48.902;9.204;2022-09-13T10:00:50;6.20;;;2.60;;
7142;SDS011;3613;48.902;9.204;2022-09-13T10:03:23;4.60;;;2.80;;
7142;SDS011;3613;48.902;9.204;2022-09-13T10:06:01;3.90;;;2.90;;
7142;SDS011;3613;48.902;9.204;2022-09-13T10:08:39;5.10;;;2.53;;
7142;SDS011;3613;48.902;9.204;2022-09-13T10:11:09;3.20;;;2.43;;
7142;SDS011;3613;48.902;9.204;2022-09-13T10:13:37;3.13;;;1.90;;
7142;SDS011;3613;48.902;9.204;2022-09-13T10:16:20;4.77;;;2.23;;
7142;SDS011;3613;48.902;9.204;2022-09-13T10:18:54;3.60;;;2.10;;
7142;SDS011;3613;48.902;9.204;2022-09-13T10:22:00;3.10;;;2.20;;
7142;SDS011;3613;48.902;9.204;2022-09-13T10:24:29;2.50;;;1.90;;
7142;SDS011;3613;48.902;9.204;2022-09-13T10:26:58;3.77;;;2.20;;
7142;SDS011;3613;48.902;9.204;2022-09-13T10:29:27;3.20;;;2.50;;
7142;SDS011;3613;48.902;9.204;2022-09-13T10:31:54;2.00;;;1.80;;
7142;SDS011;3613;48.902;9.204;2022-09-13T10:34:24;2.47;;;2.23;;
7142;SDS011;3613;48.902;9.204;2022-09-13T10:36:58;2.10;;;1.90;;
7142;SDS011;3613;48.902;9.204;2022-09-13T10:39:28;2.40;;;1.70;;
7142;SDS011;3613;48.902;9.204;2022-09-13T10:44:38;2.50;;;1.53;;
7142;SDS011;3613;48.902;9.204;2022-09-13T10:47:24;3.87;;;2.43;;
7142;SDS011;3613;48.902;9.204;2022-09-13T10:49:54;1.73;;;1.60;;
7142;SDS011;3613;48.902;9.204;2022-09-13T10:52:41;2.40;;;1.30;;
7142;SDS011;3613;48.902;9.204;2022-09-13T10:57:42;3.83;;;2.07;;
7142;SDS011;3613;48.902;9.204;2022-09-13T11:00:10;1.97;;;1.60;;
7142;SDS011;3613;48.902;9.204;2022-09-13T11:02:45;1.40;;;1.30;;
7142;SDS011;3613;48.902;9.204;2022-09-13T11:05:40;1.87;;;1.50;;
7142;SDS011;3613;48.902;9.204;2022-09-13T11:08:23;1.80;;;1.33;;
7142;SDS011;3613;48.902;9.204;2022-09-13T11:28:08;2.10;;;1.30;;
7142;SDS011;3613;48.902;9.204;2022-09-13T11:30:55;2.47;;;1.30;;
7142;SDS011;3613;48.902;9.204;2022-09-13T11:37:04;1.35;;;1.25;;
7142;SDS011;3613;48.902;9.204;2022-09-13T11:45:29;2.55;;;1.35;;
7142;SDS011;3613;48.902;9.204;2022-09-13T11:48:03;1.40;;;1.23;;
7142;SDS011;3613;48.902;9.204;2022-09-13T11:56:58;2.25;;;1.45;;
7142;SDS011;3613;48.902;9.204;2022-09-13T12:02:25;2.22;;;1.25;;
7142;SDS011;3613;48.902;9.204;2022-09-13T12:04:58;1.77;;;1.30;;
7142;SDS011;3613;48.902;9.204;2022-09-13T12:10:21;1.38;;;1.27;;
7142;SDS011;3613;48.902;9.204;2022-09-13T12:13:17;1.92;;;1.50;;
7142;SDS011;3613;48.902;9.204;2022-09-13T12:15:47;1.80;;;1.35;;
7142;SDS011;3613;48.902;9.204;2022-09-13T12:18:22;1.70;;;1.25;;
7142;SDS011;3613;48.902;9.204;2022-09-13T12:20:49;1.38;;;1.27;;
7142;SDS011;3613;48.902;9.204;2022-09-13T12:23:27;1.58;;;1.30;;
7142;SDS011;3613;48.902;9.204;2022-09-13T12:25:57;1.23;;;1.13;;
7142;SDS011;3613;48.902;9.204;2022-09-13T12:28:48;3.22;;;1.52;;
7142;SDS011;3613;48.902;9.204;2022-09-13T12:31:16;2.15;;;1.65;;
7142;SDS011;3613;48.902;9.204;2022-09-13T12:33:48;1.35;;;1.25;;
7142;SDS011;3613;48.902;9.204;2022-09-13T13:01:10;1.40;;;1.10;;
7142;SDS011;3613;48.902;9.204;2022-09-13T13:08:53;1.65;;;1.40;;
7142;SDS011;3613;48.902;9.204;2022-09-13T13:11:28;1.40;;;1.30;;
7142;SDS011;3613;48.902;9.204;2022-09-13T13:14:05;2.13;;;1.30;;
7142;SDS011;3613;48.902;9.204;2022-09-13T13:16:46;1.75;;;1.10;;
7142;SDS011;3613;48.902;9.204;2022-09-13T13:22:46;1.95;;;1.10;;
7142;SDS011;3613;48.902;9.204;2022-09-13T13:27:50;1.05;;;0.95;;
7142;SDS011;3613;48.902;9.204;2022-09-13T13:33:16;0.90;;;0.90;;
7142;SDS011;3613;48.902;9.204;2022-09-13T13:35:44;1.25;;;1.08;;
7142;SDS011;3613;48.902;9.204;2022-09-13T13:38:14;2.13;;;1.13;;
7142;SDS011;3613;48.902;9.204;2022-09-13T13:40:47;1.15;;;1.02;;
7142;SDS011;3613;48.902;9.204;2022-09-13T13:43:28;1.35;;;1.10;;
7142;SDS011;3613;48.902;9.204;2022-09-13T13:46:22;2.38;;;1.15;;
7142;SDS011;3613;48.902;9.204;2022-09-13T13:48:53;2.08;;;0.90;;
7142;SDS011;3613;48.902;9.204;2022-09-13T13:51:20;2.45;;;1.15;;
7142;SDS011;3613;48.902;9.204;2022-09-13T13:53:53;1.25;;;0.90;;
7142;SDS011;3613;48.902;9.204;2022-09-13T13:59:15;0.95;;;0.95;;
7142;SDS011;3613;48.902;9.204;2022-09-13T14:01:55;2.08;;;1.00;;
7142;SDS011;3613;48.902;9.204;2022-09-13T14:10:04;1.70;;;1.00;;
7142;SDS011;3613;48.902;9.204;2022-09-13T14:12:50;2.60;;;1.00;;
7142;SDS011;3613;48.902;9.204;2022-09-13T14:18:17;1.73;;;1.13;;
7142;SDS011;3613;48.902;9.204;2022-09-13T14:20:56;1.47;;;1.03;;
7142;SDS011;3613;48.902;9.204;2022-09-13T14:23:27;1.30;;;0.87;;
7142;SDS011;3613;48.902;9.204;2022-09-13T14:25:53;0.80;;;0.80;;
7142;SDS011;3613;48.902;9.204;2022-09-13T14:28:26;1.07;;;0.77;;
7142;SDS011;3613;48.902;9.204;2022-09-13T14:30:53;1.30;;;1.20;;
7142;SDS011;3613;48.902;9.204;2022-09-13T14:33:42;0.80;;;0.80;;
7142;SDS011;3613;48.902;9.204;2022-09-13T14:36:15;0.80;;;0.77;;
7142;SDS011;3613;48.902;9.204;2022-09-13T14:38:48;0.87;;;0.87;;
7142;SDS011;3613;48.902;9.204;2022-09-13T14:41:17;1.13;;;0.93;;
7142;SDS011;3613;48.902;9.204;2022-09-13T14:43:48;1.43;;;0.80;;
7142;SDS011;3613;48.902;9.204;2022-09-13T14:51:29;1.00;;;0.90;;
7142;SDS011;3613;48.902;9.204;2022-09-13T14:54:48;2.77;;;1.20;;
7142;SDS011;3613;48.902;9.204;2022-09-13T14:56:55;1.20;;;0.90;;
7142;SDS011;3613;48.902;9.204;2022-09-13T15:02:05;1.57;;;1.00;;
7142;SDS011;3613;48.902;9.204;2022-09-13T15:04:40;1.53;;;0.97;;
7142;SDS011;3613;48.902;9.204;2022-09-13T15:07:20;1.43;;;0.83;;
7142;SDS011;3613;48.902;9.204;2022-09-13T15:09:46;2.70;;;1.00;;
7142;SDS011;3613;48.902;9.204;2022-09-13T15:12:23;0.80;;;0.80;;
7142;SDS011;3613;48.902;9.204;2022-09-13T15:26:02;1.50;;;1.13;;
7142;SDS011;3613;48.902;9.204;2022-09-13T15:28:50;1.37;;;0.90;;
7142;SDS011;3613;48.902;9.204;2022-09-13T15:31:21;1.00;;;0.90;;
7142;SDS011;3613;48.902;9.204;2022-09-13T15:36:37;1.83;;;0.90;;
7142;SDS011;3613;48.902;9.204;2022-09-13T15:41:32;1.43;;;1.30;;
7142;SDS011;3613;48.902;9.204;2022-09-13T15:44:06;1.20;;;1.10;;
7142;SDS011;3613;48.902;9.204;2022-09-13T15:46:34;1.77;;;1.00;;
7142;SDS011;3613;48.902;9.204;2022-09-13T15:49:09;1.60;;;1.10;;
7142;SDS011;3613;48.902;9.204;2022-09-13T15:51:44;1.40;;;1.30;;
7142;SDS011;3613;48.902;9.204;2022-09-13T15:54:14;1.87;;;1.43;;
7142;SDS011;3613;48.902;9.204;2022-09-13T15:56:44;1.93;;;1.27;;
7142;SDS011;3613;48.902;9.204;2022-09-13T15:59:15;3.00;;;1.30;;
7142;SDS011;3613;48.902;9.204;2022-09-13T16:01:46;1.73;;;1.00;;
7142;SDS011;3613;48.902;9.204;2022-09-13T16:04:16;1.53;;;1.17;;
7142;SDS011;3613;48.902;9.204;2022-09-13T16:06:43;2.80;;;1.23;;
7142;SDS011;3613;48.902;9.204;2022-09-13T16:11:45;1.37;;;1.10;;
7142;SDS011;3613;48.902;9.204;2022-09-13T16:14:12;1.50;;;1.20;;
7142;SDS011;3613;48.902;9.204;2022-09-13T16:16:39;2.10;;;1.10;;
7142;SDS011;3613;48.902;9.204;2022-09-13T16:19:13;1.60;;;1.10;;
7142;SDS011;3613;48.902;9.204;2022-09-13T16:21:41;2.73;;;1.40;;
7142;SDS011;3613;48.902;9.204;2022-09-13T16:24:09;4.00;;;1.87;;
7142;SDS011;3613;48.902;9.204;2022-09-13T16:26:35;2.70;;;1.30;;
7142;SDS011;3613;48.902;9.204;2022-09-13T16:29:00;2.40;;;1.10;;
7142;SDS011;3613;48.902;9.204;2022-09-13T16:31:26;2.97;;;1.43;;
7142;SDS011;3613;48.902;9.204;2022-09-13T16:33:52;2.50;;;1.53;;
7142;SDS011;3613;48.902;9.204;2022-09-13T16:36:22;4.03;;;3.57;;
7142;SDS011;3613;48.902;9.204;2022-09-13T16:38:48;2.77;;;1.87;;
7142;SDS011;3613;48.902;9.204;2022-09-13T16:41:15;3.50;;;2.10;;
7142;SDS011;3613;48.902;9.204;2022-09-13T16:43:43;5.53;;;3.87;;
7142;SDS011;3613;48.902;9.204;2022-09-13T16:46:12;3.07;;;2.20;;
7142;SDS011;3613;48.902;9.204;2022-09-13T16:48:39;3.37;;;2.20;;
7142;SDS011;3613;48.902;9.204;2022-09-13T16:51:08;6.50;;;4.37;;
7142;SDS011;3613;48.902;9.204;2022-09-13T16:53:36;8.23;;;4.97;;
7142;SDS011;3613;48.902;9.204;2022-09-13T16:56:04;7.80;;;3.60;;
7142;SDS011;3613;48.902;9.204;2022-09-13T16:58:36;4.30;;;3.40;;
7142;SDS011;3613;48.902;9.204;2022-09-13T17:01:06;4.27;;;3.00;;
7142;SDS011;3613;48.902;9.204;2022-09-13T17:03:36;2.73;;;1.97;;
7142;SDS011;3613;48.902;9.204;2022-09-13T17:06:07;8.83;;;6.17;;
7142;SDS011;3613;48.902;9.204;2022-09-13T17:08:38;7.23;;;6.13;;
7142;SDS011;3613;48.902;9.204;2022-09-13T17:11:09;2.80;;;2.23;;
7142;SDS011;3613;48.902;9.204;2022-09-13T17:13:39;4.17;;;2.30;;
7142;SDS011;3613;48.902;9.204;2022-09-13T17:16:17;4.23;;;2.23;;
7142;SDS011;3613;48.902;9.204;2022-09-13T17:18:48;3.10;;;2.40;;
7142;SDS011;3613;48.902;9.204;2022-09-13T17:21:17;7.83;;;5.83;;
7142;SDS011;3613;48.902;9.204;2022-09-13T17:23:43;4.73;;;2.60;;
7142;SDS011;3613;48.902;9.204;2022-09-13T17:26:11;6.33;;;2.67;;
7142;SDS011;3613;48.902;9.204;2022-09-13T17:28:41;3.30;;;2.57;;
7142;SDS011;3613;48.902;9.204;2022-09-13T17:31:07;6.00;;;3.60;;
7142;SDS011;3613;48.902;9.204;2022-09-13T17:33:33;5.67;;;3.40;;
7142;SDS011;3613;48.902;9.204;2022-09-13T17:36:03;4.83;;;2.70;;
7142;SDS011;3613;48.902;9.204;2022-09-13T17:38:33;2.33;;;1.93;;
7142;SDS011;3613;48.902;9.204;2022-09-13T17:41:04;4.10;;;2.50;;
7142;SDS011;3613;48.902;9.204;2022-09-13T17:43:33;4.40;;;1.83;;
7142;SDS011;3613;48.902;9.204;2022-09-13T17:46:05;3.97;;;1.97;;
7142;SDS011;3613;48.902;9.204;2022-09-13T17:48:35;3.07;;;1.93;;
7142;SDS011;3613;48.902;9.204;2022-09-13T17:51:08;3.77;;;2.50;;
7142;SDS011;3613;48.902;9.204;2022-09-13T17:53:48;3.47;;;2.83;;
7142;SDS011;3613;48.902;9.204;2022-09-13T17:56:17;2.50;;;2.30;;
7142;SDS011;3613;48.902;9.204;2022-09-13T17:58:47;4.73;;;3.00;;
7142;SDS011;3613;48.902;9.204;2022-09-13T18:01:17;4.03;;;2.57;;
7142;SDS011;3613;48.902;9.204;2022-09-13T18:03:43;3.43;;;3.13;;
7142;SDS011;3613;48.902;9.204;2022-09-13T18:06:11;3.57;;;2.80;;
7142;SDS011;3613;48.902;9.204;2022-09-13T18:08:38;3.40;;;2.53;;
7142;SDS011;3613;48.902;9.204;2022-09-13T18:11:06;4.67;;;3.43;;
7142;SDS011;3613;48.902;9.204;2022-09-13T18:13:35;4.30;;;2.70;;
7142;SDS011;3613;48.902;9.204;2022-09-13T18:16:04;4.40;;;3.13;;
7142;SDS011;3613;48.902;9.204;2022-09-13T18:18:35;3.60;;;2.80;;
7142;SDS011;3613;48.902;9.204;2022-09-13T18:21:02;4.73;;;3.60;;
7142;SDS011;3613;48.902;9.204;2022-09-13T18:23:31;6.80;;;3.73;;
7142;SDS011;3613;48.902;9.204;2022-09-13T18:28:29;6.10;;;3.60;;
7142;SDS011;3613;48.902;9.204;2022-09-13T18:30:57;4.13;;;3.00;;
7142;SDS011;3613;48.902;9.204;2022-09-13T18:33:28;5.07;;;3.33;;
7142;SDS011;3613;48.902;9.204;2022-09-13T18:38:26;6.13;;;3.67;;
7142;SDS011;3613;48.902;9.204;2022-09-13T18:40:58;4.53;;;2.57;;
7142;SDS011;3613;48.902;9.204;2022-09-13T18:43:25;7.43;;;4.43;;
7142;SDS011;3613;48.902;9.204;2022-09-13T18:45:54;2.87;;;2.40;;
7142;SDS011;3613;48.902;9.204;2022-09-13T18:48:20;3.43;;;3.10;;
7142;SDS011;3613;48.902;9.204;2022-09-13T18:50:51;4.57;;;3.97;;
7142;SDS011;3613;48.902;9.204;2022-09-13T18:53:16;8.97;;;4.30;;
7142;SDS011;3613;48.902;9.204;2022-09-13T18:55:42;5.90;;;3.90;;
7142;SDS011;3613;48.902;9.204;2022-09-13T18:58:11;7.30;;;3.33;;
7142;SDS011;3613;48.902;9.204;2022-09-13T19:00:39;2.40;;;2.00;;
7142;SDS011;3613;48.902;9.204;2022-09-13T19:03:05;22.27;;;12.17;;
7142;SDS011;3613;48.902;9.204;2022-09-13T19:05:31;7.07;;;3.80;;
7142;SDS011;3613;48.902;9.204;2022-09-13T19:07:59;3.47;;;2.33;;
7142;SDS011;3613;48.902;9.204;2022-09-13T19:10:25;5.00;;;3.23;;
7142;SDS011;3613;48.902;9.204;2022-09-13T19:12:52;7.73;;;5.10;;
7142;SDS011;3613;48.902;9.204;2022-09-13T19:15:18;4.10;;;3.27;;
7142;SDS011;3613;48.902;9.204;2022-09-13T19:17:46;2.73;;;2.20;;
7142;SDS011;3613;48.902;9.204;2022-09-13T19:20:13;3.23;;;2.30;;
7142;SDS011;3613;48.902;9.204;2022-09-13T19:22:39;8.10;;;6.27;;
7142;SDS011;3613;48.902;9.204;2022-09-13T19:25:08;5.43;;;4.17;;
7142;SDS011;3613;48.902;9.204;2022-09-13T19:27:37;10.30;;;7.53;;